createdAt,value
2019-02-14T00:04:27.802Z,102725.00
2019-02-14T00:09:31.224Z,102720.96
2019-02-14T00:14:34.644Z,102727.27
2019-02-14T00:19:38.221Z,102721.64
2019-02-14T00:24:41.653Z,102712.52
2019-02-14T00:29:45.077Z,102713.16
2019-02-14T00:34:48.495Z,102720.41
2019-02-14T00:39:51.927Z,102720.66
2019-02-14T00:44:55.358Z,102730.54
2019-02-14T00:49:58.774Z,102731.91
2019-02-14T00:55:02.195Z,102730.65
2019-02-14T01:00:08.126Z,102734.41
2019-02-14T01:05:11.560Z,102721.47
2019-02-14T01:10:15.097Z,102713.78
2019-02-14T01:20:29.452Z,102715.88
2019-02-14T01:25:32.857Z,102718.45
2019-02-14T01:30:36.421Z,102723.59
2019-02-14T01:35:42.025Z,102714.44
2019-02-14T01:40:45.055Z,102722.34
2019-02-14T01:45:48.494Z,102705.83
2019-02-14T01:50:51.925Z,102705.80
2019-02-14T01:55:55.370Z,102698.07
2019-02-14T02:00:59.345Z,102698.33
2019-02-14T02:06:02.774Z,102698.89
2019-02-14T02:11:06.461Z,102701.72
2019-02-14T02:16:09.936Z,102697.92
2019-02-14T02:21:13.432Z,102693.80
2019-02-14T02:26:16.895Z,102690.71
2019-02-14T02:31:20.360Z,102692.84
2019-02-14T02:36:23.766Z,102706.75
2019-02-14T02:41:27.210Z,102694.62
2019-02-14T02:46:30.727Z,102696.42
2019-02-14T02:51:34.181Z,102696.09
2019-02-14T02:56:37.610Z,102708.30
2019-02-14T03:01:41.107Z,102701.23
2019-02-14T03:06:44.554Z,102710.88
2019-02-14T03:11:47.973Z,102700.83
2019-02-14T03:16:51.406Z,102689.91
2019-02-14T03:21:54.858Z,102698.15
2019-02-14T03:26:58.373Z,102692.80
2019-02-14T03:32:01.941Z,102713.53
2019-02-14T03:37:05.369Z,102713.72
2019-02-14T03:42:08.791Z,102722.88
2019-02-14T03:47:12.223Z,102718.19
2019-02-14T03:52:15.728Z,102713.41
2019-02-14T03:57:19.159Z,102699.62
2019-02-14T04:02:22.581Z,102712.09
2019-02-14T04:07:26.054Z,102725.91
2019-02-14T04:12:29.629Z,102719.86
2019-02-14T04:17:33.068Z,102730.81
2019-02-14T04:22:36.488Z,102720.52
2019-02-14T04:27:39.916Z,102727.20
2019-02-14T04:32:43.354Z,102730.73
2019-02-14T04:37:46.845Z,102733.02
2019-02-14T04:42:50.278Z,102728.14
2019-02-14T04:47:53.787Z,102730.30
2019-02-14T04:52:57.209Z,102736.94
2019-02-14T04:58:00.650Z,102729.98
2019-02-14T05:03:04.076Z,102732.56
2019-02-14T05:08:07.575Z,102734.36
2019-02-14T05:13:10.995Z,102726.09
2019-02-14T05:18:15.454Z,102743.76
2019-02-14T05:23:18.956Z,102750.31
2019-02-14T05:28:22.491Z,102745.45
2019-02-14T05:33:25.937Z,102741.83
2019-02-14T05:38:29.372Z,102756.89
2019-02-14T05:43:33.001Z,102750.95
2019-02-14T05:48:36.462Z,102755.00
2019-02-14T05:53:39.934Z,102750.38
2019-02-14T05:58:43.399Z,102747.69
2019-02-14T06:03:46.837Z,102759.20
2019-02-14T06:08:50.333Z,102779.31
2019-02-14T06:13:53.734Z,102768.34
2019-02-14T06:18:57.355Z,102773.39
2019-02-14T06:24:00.796Z,102766.09
2019-02-14T06:29:04.215Z,102765.69
2019-02-14T06:34:07.661Z,102769.47
2019-02-14T06:39:11.097Z,102778.94
2019-02-14T06:44:14.553Z,102788.98
2019-02-14T06:49:18.004Z,102788.10
2019-02-14T06:54:21.462Z,102803.05
2019-02-14T06:59:25.054Z,102809.23
2019-02-14T07:04:28.627Z,102812.48
2019-02-14T07:09:32.087Z,102809.19
2019-02-14T07:14:35.536Z,102817.70
2019-02-14T07:19:38.911Z,102827.41
2019-02-14T07:24:42.357Z,102834.61
2019-02-14T07:29:45.813Z,102818.30
2019-02-14T07:34:49.282Z,102815.05
2019-02-14T07:39:52.723Z,102814.78
2019-02-14T07:44:56.139Z,102816.95
2019-02-14T07:49:59.569Z,102813.33
2019-02-14T07:55:03.041Z,102815.22
2019-02-14T08:00:10.088Z,102814.22
2019-02-14T08:05:13.649Z,102814.30
2019-02-14T08:10:18.901Z,102817.11
2019-02-14T08:15:22.453Z,102811.08
2019-02-14T08:20:25.962Z,102807.99
2019-02-14T08:25:29.400Z,102821.66
2019-02-14T08:30:32.844Z,102826.19
2019-02-14T08:35:36.264Z,102826.79
2019-02-14T08:40:39.746Z,102829.03
2019-02-14T08:45:43.423Z,102835.64
2019-02-14T08:50:46.852Z,102838.75
2019-02-14T08:55:51.165Z,102848.75
2019-02-14T09:00:54.582Z,102845.09
2019-02-14T09:05:58.088Z,102840.23
2019-02-14T09:11:01.526Z,102844.95
2019-02-14T09:16:04.970Z,102827.74
2019-02-14T09:21:08.760Z,102813.02
2019-02-14T09:26:12.353Z,102818.19
2019-02-14T09:31:15.783Z,102828.73
2019-02-14T09:36:19.230Z,102840.88
2019-02-14T09:41:22.667Z,102841.18
2019-02-14T09:46:26.140Z,102834.73
2019-02-14T09:51:30.473Z,102827.13
2019-02-14T09:56:33.908Z,102825.97
2019-02-14T10:01:37.363Z,102822.26
2019-02-14T10:06:40.775Z,102826.25
2019-02-14T10:11:44.288Z,102825.95
2019-02-14T10:16:47.697Z,102825.55
2019-02-14T10:21:51.405Z,102820.31
2019-02-14T10:26:54.915Z,102813.59
2019-02-14T10:31:58.372Z,102811.94
2019-02-14T10:37:01.783Z,102814.97
2019-02-14T10:42:05.212Z,102813.67
2019-02-14T10:47:08.702Z,102819.87
2019-02-14T10:52:12.140Z,102820.07
2019-02-14T10:57:15.566Z,102819.62
2019-02-14T11:02:19.420Z,102814.86
2019-02-14T11:07:22.851Z,102803.16
2019-02-14T11:12:26.334Z,102794.12
2019-02-14T11:17:29.719Z,102792.73
2019-02-14T11:22:33.130Z,102788.56
2019-02-14T11:27:36.569Z,102790.27
2019-02-14T11:32:39.991Z,102786.61
2019-02-14T11:37:43.435Z,102789.25
2019-02-14T11:42:47.018Z,102786.78
2019-02-14T11:47:50.480Z,102783.60
2019-02-14T11:52:53.903Z,102776.84
2019-02-14T11:57:57.319Z,102785.83
2019-02-14T12:03:00.924Z,102791.94
2019-02-14T12:08:04.337Z,102790.16
2019-02-14T12:13:07.922Z,102788.33
2019-02-14T12:18:11.368Z,102783.61
2019-02-14T12:23:14.791Z,102783.83
2019-02-14T12:28:18.231Z,102775.95
2019-02-14T12:33:22.099Z,102770.98
2019-02-14T12:38:25.538Z,102771.99
2019-02-14T12:43:29.055Z,102762.97
2019-02-14T12:48:32.674Z,102743.73
2019-02-14T12:53:36.091Z,102746.93
2019-02-14T12:58:39.515Z,102745.39
2019-02-14T13:03:42.943Z,102739.74
2019-02-14T13:08:46.386Z,102740.23
2019-02-14T13:13:50.698Z,102730.98
2019-02-14T13:18:54.406Z,102720.52
2019-02-14T13:23:57.840Z,102715.23
2019-02-14T13:29:01.267Z,102712.97
2019-02-14T13:34:04.699Z,102712.59
2019-02-14T13:39:08.179Z,102702.95
2019-02-14T13:44:11.592Z,102701.20
2019-02-14T13:49:15.023Z,102700.29
2019-02-14T13:54:18.474Z,102691.97
2019-02-14T13:59:21.898Z,102684.34
2019-02-14T14:04:25.339Z,102687.06
2019-02-14T14:09:28.792Z,102681.82
2019-02-14T14:14:32.257Z,102682.26
2019-02-14T14:19:35.706Z,102683.44
2019-02-14T14:24:39.144Z,102678.63
2019-02-14T14:29:42.675Z,102677.17
2019-02-14T14:34:46.097Z,102668.36
2019-02-14T14:39:49.527Z,102673.85
2019-02-14T14:44:53.589Z,102675.41
2019-02-14T14:49:57.155Z,102670.52
2019-02-14T14:55:00.761Z,102666.85
2019-02-14T15:00:06.147Z,102670.12
2019-02-14T15:05:09.658Z,102665.97
2019-02-14T15:10:13.133Z,102663.10
2019-02-14T15:15:16.543Z,102662.45
2019-02-14T15:20:20.011Z,102651.39
2019-02-14T15:25:23.611Z,102654.71
2019-02-14T15:30:27.197Z,102648.39
2019-02-14T15:35:30.646Z,102649.96
2019-02-14T15:40:34.555Z,102646.70
2019-02-14T15:45:39.269Z,102644.32
2019-02-14T15:50:42.733Z,102639.18
2019-02-14T15:55:46.362Z,102637.14
2019-02-14T16:00:51.682Z,102634.91
2019-02-14T16:05:55.302Z,102640.73
2019-02-14T16:10:58.913Z,102633.36
2019-02-14T16:16:02.352Z,102626.85
2019-02-14T16:21:07.793Z,102628.79
2019-02-14T16:26:12.949Z,102625.23
2019-02-14T16:31:16.551Z,102629.70
2019-02-14T16:36:20.718Z,102629.41
2019-02-14T16:41:25.367Z,102627.42
2019-02-14T16:46:28.780Z,102632.29
2019-02-14T16:51:32.193Z,102634.17
2019-02-14T16:56:35.659Z,102638.34
2019-02-14T17:01:39.091Z,102636.50
2019-02-14T17:06:42.511Z,102643.50
2019-02-14T17:11:45.934Z,102652.05
2019-02-14T17:16:49.437Z,102653.09
2019-02-14T17:21:52.876Z,102657.95
2019-02-14T17:26:56.297Z,102665.11
2019-02-14T17:31:59.756Z,102666.34
2019-02-14T17:37:03.250Z,102669.90
2019-02-14T17:42:06.917Z,102667.33
2019-02-14T17:47:10.322Z,102676.95
2019-02-14T17:52:13.794Z,102673.66
2019-02-14T17:57:17.222Z,102672.22
2019-02-14T18:02:20.645Z,102666.92
2019-02-14T18:07:24.055Z,102667.20
2019-02-14T18:12:27.544Z,102666.55
2019-02-14T18:17:31.038Z,102666.52
2019-02-14T18:22:34.789Z,102676.55
2019-02-14T18:27:38.337Z,102671.42
2019-02-14T18:32:41.767Z,102675.42
2019-02-14T18:37:45.184Z,102674.31
2019-02-14T18:42:49.139Z,102670.58
2019-02-14T18:47:52.826Z,102669.73
2019-02-14T18:52:56.252Z,102673.80
2019-02-14T18:57:59.671Z,102670.48
2019-02-14T19:03:03.110Z,102665.83
2019-02-14T19:08:06.519Z,102659.16
2019-02-14T19:13:09.933Z,102660.80
2019-02-14T19:18:13.537Z,102653.44
2019-02-14T19:23:24.141Z,102651.21
2019-02-14T19:28:22.135Z,102651.88
2019-02-14T19:33:25.614Z,102651.28
2019-02-14T19:38:29.040Z,102643.63
2019-02-14T19:43:32.461Z,102648.73
2019-02-14T19:48:35.992Z,102639.47
2019-02-14T19:53:39.412Z,102637.17
2019-02-14T19:58:42.924Z,102633.14
2019-02-14T20:03:46.421Z,102630.22
2019-02-14T20:08:49.880Z,102630.50
2019-02-14T20:13:53.528Z,102626.81
2019-02-14T20:18:56.971Z,102626.45
2019-02-14T20:24:00.419Z,102622.72
2019-02-14T20:29:03.866Z,102627.75
2019-02-14T20:34:07.331Z,102621.89
2019-02-14T20:39:10.909Z,102615.87
2019-02-14T20:44:14.357Z,102613.39
2019-02-14T20:49:17.757Z,102613.67
2019-02-14T20:54:21.197Z,102612.31
2019-02-14T20:59:24.618Z,102612.91
2019-02-14T21:04:28.073Z,102611.00
2019-02-14T21:09:31.497Z,102619.20
2019-02-14T21:14:34.960Z,102619.41
2019-02-14T21:19:38.490Z,102614.59
2019-02-14T21:24:41.933Z,102610.97
2019-02-14T21:29:45.931Z,102607.70
2019-02-14T21:34:49.461Z,102606.91
2019-02-14T21:39:53.447Z,102616.50
2019-02-14T21:44:56.892Z,102611.73
2019-02-14T21:50:00.810Z,102608.17
2019-02-14T21:55:06.409Z,102609.82
2019-02-14T22:00:14.525Z,102612.80
2019-02-14T22:05:24.686Z,102618.98
2019-02-14T22:10:24.791Z,102616.41
2019-02-14T22:15:29.366Z,102613.75
2019-02-14T22:20:32.797Z,102610.61
2019-02-14T22:25:36.235Z,102612.64
2019-02-14T22:30:39.742Z,102613.03
2019-02-14T22:35:43.264Z,102615.78
2019-02-14T22:40:46.794Z,102611.45
2019-02-14T22:45:50.477Z,102608.69
2019-02-14T22:50:54.105Z,102618.18
2019-02-14T22:55:57.593Z,102612.80
2019-02-14T23:01:01.469Z,102615.94
2019-02-14T23:06:05.009Z,102613.22
2019-02-14T23:11:08.419Z,102618.37
2019-02-14T23:16:11.903Z,102617.57
2019-02-14T23:21:15.311Z,102610.94
2019-02-14T23:26:18.775Z,102616.89
2019-02-14T23:31:22.184Z,102620.13
2019-02-14T23:36:25.847Z,102616.98
2019-02-14T23:41:29.438Z,102627.69
2019-02-14T23:46:32.938Z,102616.98
2019-02-14T23:51:36.368Z,102616.59
2019-02-14T23:56:39.798Z,102616.73
